sensor_id;sensor_type;location;lat;lon;timestamp;temperature;humidity
27540;DHT22;15906;52.046;4.724;2023-06-24T00:01:23;18.50;99.90
27540;DHT22;15906;52.046;4.724;2023-06-24T00:03:48;18.60;99.90
27540;DHT22;15906;52.046;4.724;2023-06-24T00:06:19;18.40;99.90
27540;DHT22;15906;52.046;4.724;2023-06-24T00:08:46;18.50;99.90
27540;DHT22;15906;52.046;4.724;2023-06-24T00:11:12;18.50;99.90
27540;DHT22;15906;52.046;4.724;2023-06-24T00:13:39;18.40;99.90
27540;DHT22;15906;52.046;4.724;2023-06-24T00:16:05;18.30;99.90
27540;DHT22;15906;52.046;4.724;2023-06-24T00:18:32;18.30;99.90
27540;DHT22;15906;52.046;4.724;2023-06-24T00:20:58;18.20;99.90
27540;DHT22;15906;52.046;4.724;2023-06-24T00:23:23;18.20;99.90
27540;DHT22;15906;52.046;4.724;2023-06-24T00:25:51;18.20;99.90
27540;DHT22;15906;52.046;4.724;2023-06-24T00:28:16;18.10;99.90
27540;DHT22;15906;52.046;4.724;2023-06-24T00:30:42;18.10;99.90
27540;DHT22;15906;52.046;4.724;2023-06-24T00:33:07;18.10;99.90
27540;DHT22;15906;52.046;4.724;2023-06-24T00:35:36;18.20;99.90
27540;DHT22;15906;52.046;4.724;2023-06-24T00:38:03;18.10;99.90
27540;DHT22;15906;52.046;4.724;2023-06-24T00:40:28;17.90;99.90
27540;DHT22;15906;52.046;4.724;2023-06-24T00:42:54;18.00;99.90
27540;DHT22;15906;52.046;4.724;2023-06-24T00:45:21;17.90;99.90
27540;DHT22;15906;52.046;4.724;2023-06-24T00:47:47;17.90;99.90
27540;DHT22;15906;52.046;4.724;2023-06-24T00:50:14;17.90;99.90
27540;DHT22;15906;52.046;4.724;2023-06-24T00:52:40;17.80;99.90
27540;DHT22;15906;52.046;4.724;2023-06-24T00:55:13;17.80;99.90
27540;DHT22;15906;52.046;4.724;2023-06-24T00:57:49;17.80;99.90
27540;DHT22;15906;52.046;4.724;2023-06-24T01:00:18;17.80;99.90
27540;DHT22;15906;52.046;4.724;2023-06-24T01:02:47;17.70;99.90
27540;DHT22;15906;52.046;4.724;2023-06-24T01:05:12;17.70;99.90
27540;DHT22;15906;52.046;4.724;2023-06-24T01:07:38;17.60;99.90
27540;DHT22;15906;52.046;4.724;2023-06-24T01:10:06;17.60;99.90
27540;DHT22;15906;52.046;4.724;2023-06-24T01:12:37;17.50;99.90
27540;DHT22;15906;52.046;4.724;2023-06-24T01:15:09;17.50;99.90
27540;DHT22;15906;52.046;4.724;2023-06-24T01:20:56;17.30;99.90
27540;DHT22;15906;52.046;4.724;2023-06-24T01:24:02;17.20;99.90
27540;DHT22;15906;52.046;4.724;2023-06-24T01:29:34;17.30;99.90
27540;DHT22;15906;52.046;4.724;2023-06-24T01:32:11;17.20;99.90
27540;DHT22;15906;52.046;4.724;2023-06-24T01:34:46;17.20;99.90
27540;DHT22;15906;52.046;4.724;2023-06-24T01:37:21;17.20;99.90
27540;DHT22;15906;52.046;4.724;2023-06-24T01:40:11;17.10;99.90
27540;DHT22;15906;52.046;4.724;2023-06-24T01:42:39;17.10;99.90
27540;DHT22;15906;52.046;4.724;2023-06-24T01:45:28;17.00;99.90
27540;DHT22;15906;52.046;4.724;2023-06-24T01:48:13;17.00;99.90
27540;DHT22;15906;52.046;4.724;2023-06-24T01:50:42;16.90;99.90
27540;DHT22;15906;52.046;4.724;2023-06-24T01:53:09;16.90;99.90
27540;DHT22;15906;52.046;4.724;2023-06-24T01:55:35;16.90;99.90
27540;DHT22;15906;52.046;4.724;2023-06-24T01:58:04;16.90;99.90
27540;DHT22;15906;52.046;4.724;2023-06-24T02:00:31;16.90;99.90
27540;DHT22;15906;52.046;4.724;2023-06-24T02:02:57;16.90;99.90
27540;DHT22;15906;52.046;4.724;2023-06-24T02:05:25;16.90;99.90
27540;DHT22;15906;52.046;4.724;2023-06-24T02:07:52;16.80;99.90
27540;DHT22;15906;52.046;4.724;2023-06-24T02:10:18;16.80;99.90
27540;DHT22;15906;52.046;4.724;2023-06-24T02:12:46;16.80;99.90
27540;DHT22;15906;52.046;4.724;2023-06-24T02:15:13;16.80;99.90
27540;DHT22;15906;52.046;4.724;2023-06-24T02:17:40;16.70;99.90
27540;DHT22;15906;52.046;4.724;2023-06-24T02:20:07;16.80;99.90
27540;DHT22;15906;52.046;4.724;2023-06-24T02:22:37;16.70;99.90
27540;DHT22;15906;52.046;4.724;2023-06-24T02:25:05;16.70;99.90
27540;DHT22;15906;52.046;4.724;2023-06-24T02:27:32;16.70;99.90
27540;DHT22;15906;52.046;4.724;2023-06-24T02:29:58;16.70;99.90
27540;DHT22;15906;52.046;4.724;2023-06-24T02:32:25;16.70;99.90
27540;DHT22;15906;52.046;4.724;2023-06-24T02:34:50;16.70;99.90
27540;DHT22;15906;52.046;4.724;2023-06-24T02:37:16;16.60;99.90
27540;DHT22;15906;52.046;4.724;2023-06-24T02:39:41;16.60;99.90
27540;DHT22;15906;52.046;4.724;2023-06-24T02:42:10;16.60;99.90
27540;DHT22;15906;52.046;4.724;2023-06-24T02:44:37;16.50;99.90
27540;DHT22;15906;52.046;4.724;2023-06-24T02:47:05;16.50;99.90
27540;DHT22;15906;52.046;4.724;2023-06-24T02:49:32;16.50;99.90
27540;DHT22;15906;52.046;4.724;2023-06-24T02:51:57;16.50;99.90
27540;DHT22;15906;52.046;4.724;2023-06-24T02:54:23;16.50;99.90
27540;DHT22;15906;52.046;4.724;2023-06-24T02:56:49;16.50;99.90
27540;DHT22;15906;52.046;4.724;2023-06-24T02:59:15;16.40;99.90
27540;DHT22;15906;52.046;4.724;2023-06-24T03:01:41;16.50;99.90
27540;DHT22;15906;52.046;4.724;2023-06-24T03:04:10;16.40;99.90
27540;DHT22;15906;52.046;4.724;2023-06-24T03:06:36;16.40;99.90
27540;DHT22;15906;52.046;4.724;2023-06-24T03:09:05;16.40;99.90
27540;DHT22;15906;52.046;4.724;2023-06-24T03:11:30;16.50;99.90
27540;DHT22;15906;52.046;4.724;2023-06-24T03:13:56;16.40;99.90
27540;DHT22;15906;52.046;4.724;2023-06-24T03:16:22;16.40;99.90
27540;DHT22;15906;52.046;4.724;2023-06-24T03:18:47;16.40;99.90
27540;DHT22;15906;52.046;4.724;2023-06-24T03:21:13;16.40;99.90
27540;DHT22;15906;52.046;4.724;2023-06-24T03:23:39;16.30;99.90
27540;DHT22;15906;52.046;4.724;2023-06-24T03:26:05;16.40;99.90
27540;DHT22;15906;52.046;4.724;2023-06-24T03:28:32;16.40;99.90
27540;DHT22;15906;52.046;4.724;2023-06-24T03:30:58;16.40;99.90
27540;DHT22;15906;52.046;4.724;2023-06-24T03:33:24;16.40;99.90
27540;DHT22;15906;52.046;4.724;2023-06-24T03:35:52;16.50;99.90
27540;DHT22;15906;52.046;4.724;2023-06-24T03:38:18;16.50;99.90
27540;DHT22;15906;52.046;4.724;2023-06-24T03:40:43;16.50;99.90
27540;DHT22;15906;52.046;4.724;2023-06-24T03:43:09;16.60;99.90
27540;DHT22;15906;52.046;4.724;2023-06-24T03:45:35;16.50;99.90
27540;DHT22;15906;52.046;4.724;2023-06-24T03:48:00;16.60;99.90
27540;DHT22;15906;52.046;4.724;2023-06-24T03:50:26;16.60;99.90
27540;DHT22;15906;52.046;4.724;2023-06-24T03:52:51;16.50;99.90
27540;DHT22;15906;52.046;4.724;2023-06-24T03:55:17;16.60;99.90
27540;DHT22;15906;52.046;4.724;2023-06-24T03:57:42;16.60;99.90
27540;DHT22;15906;52.046;4.724;2023-06-24T04:00:08;16.60;99.90
27540;DHT22;15906;52.046;4.724;2023-06-24T04:02:46;16.60;99.90
27540;DHT22;15906;52.046;4.724;2023-06-24T04:05:11;16.70;99.90
27540;DHT22;15906;52.046;4.724;2023-06-24T04:07:38;16.70;99.90
27540;DHT22;15906;52.046;4.724;2023-06-24T04:10:05;16.70;99.90
27540;DHT22;15906;52.046;4.724;2023-06-24T04:12:34;16.70;99.90
27540;DHT22;15906;52.046;4.724;2023-06-24T04:15:04;16.60;99.90
27540;DHT22;15906;52.046;4.724;2023-06-24T04:17:30;16.70;99.90
27540;DHT22;15906;52.046;4.724;2023-06-24T04:19:56;16.70;99.90
27540;DHT22;15906;52.046;4.724;2023-06-24T04:22:21;16.80;99.90
27540;DHT22;15906;52.046;4.724;2023-06-24T04:24:47;16.80;99.90
27540;DHT22;15906;52.046;4.724;2023-06-24T04:27:13;16.80;99.90
27540;DHT22;15906;52.046;4.724;2023-06-24T04:29:39;16.90;99.90
27540;DHT22;15906;52.046;4.724;2023-06-24T04:32:04;16.80;99.90
27540;DHT22;15906;52.046;4.724;2023-06-24T04:34:30;16.90;99.90
27540;DHT22;15906;52.046;4.724;2023-06-24T04:36:55;16.90;99.90
27540;DHT22;15906;52.046;4.724;2023-06-24T04:39:21;17.00;99.90
27540;DHT22;15906;52.046;4.724;2023-06-24T04:41:47;17.00;99.90
27540;DHT22;15906;52.046;4.724;2023-06-24T04:44:14;17.00;99.90
27540;DHT22;15906;52.046;4.724;2023-06-24T04:46:39;17.20;99.90
27540;DHT22;15906;52.046;4.724;2023-06-24T04:49:06;17.10;99.90
27540;DHT22;15906;52.046;4.724;2023-06-24T04:51:32;17.00;99.90
27540;DHT22;15906;52.046;4.724;2023-06-24T04:53:58;17.10;99.90
27540;DHT22;15906;52.046;4.724;2023-06-24T04:56:24;17.10;99.90
27540;DHT22;15906;52.046;4.724;2023-06-24T04:58:50;17.20;99.90
27540;DHT22;15906;52.046;4.724;2023-06-24T05:01:15;17.20;99.90
27540;DHT22;15906;52.046;4.724;2023-06-24T05:03:41;17.20;99.90
27540;DHT22;15906;52.046;4.724;2023-06-24T05:06:06;17.30;99.90
27540;DHT22;15906;52.046;4.724;2023-06-24T05:08:32;17.40;99.90
27540;DHT22;15906;52.046;4.724;2023-06-24T05:10:57;17.40;99.90
27540;DHT22;15906;52.046;4.724;2023-06-24T05:13:23;17.40;99.90
27540;DHT22;15906;52.046;4.724;2023-06-24T05:15:49;17.50;99.90
27540;DHT22;15906;52.046;4.724;2023-06-24T05:18:14;17.70;99.90
27540;DHT22;15906;52.046;4.724;2023-06-24T05:20:40;17.70;99.90
27540;DHT22;15906;52.046;4.724;2023-06-24T05:23:05;17.70;99.90
27540;DHT22;15906;52.046;4.724;2023-06-24T05:25:31;17.80;99.90
27540;DHT22;15906;52.046;4.724;2023-06-24T05:27:57;17.80;99.90
27540;DHT22;15906;52.046;4.724;2023-06-24T05:30:22;17.90;99.90
27540;DHT22;15906;52.046;4.724;2023-06-24T05:32:48;18.00;99.90
27540;DHT22;15906;52.046;4.724;2023-06-24T05:35:14;18.20;99.90
27540;DHT22;15906;52.046;4.724;2023-06-24T05:37:39;18.30;99.90
27540;DHT22;15906;52.046;4.724;2023-06-24T05:40:05;18.40;99.90
27540;DHT22;15906;52.046;4.724;2023-06-24T05:42:32;18.50;99.90
27540;DHT22;15906;52.046;4.724;2023-06-24T05:44:59;18.30;99.90
27540;DHT22;15906;52.046;4.724;2023-06-24T05:47:24;18.60;99.90
27540;DHT22;15906;52.046;4.724;2023-06-24T05:49:50;18.70;99.90
27540;DHT22;15906;52.046;4.724;2023-06-24T05:52:15;18.80;99.90
27540;DHT22;15906;52.046;4.724;2023-06-24T05:54:41;18.90;99.90
27540;DHT22;15906;52.046;4.724;2023-06-24T05:57:06;18.90;99.90
27540;DHT22;15906;52.046;4.724;2023-06-24T05:59:33;19.10;99.90
27540;DHT22;15906;52.046;4.724;2023-06-24T06:01:58;19.10;99.90
27540;DHT22;15906;52.046;4.724;2023-06-24T06:04:24;19.10;99.90
27540;DHT22;15906;52.046;4.724;2023-06-24T06:06:49;19.30;99.90
27540;DHT22;15906;52.046;4.724;2023-06-24T06:09:15;19.40;99.90
27540;DHT22;15906;52.046;4.724;2023-06-24T06:11:41;19.50;99.90
27540;DHT22;15906;52.046;4.724;2023-06-24T06:14:07;19.50;99.90
27540;DHT22;15906;52.046;4.724;2023-06-24T06:16:32;19.60;99.90
27540;DHT22;15906;52.046;4.724;2023-06-24T06:18:58;19.70;99.90
27540;DHT22;15906;52.046;4.724;2023-06-24T06:21:24;19.70;99.90
27540;DHT22;15906;52.046;4.724;2023-06-24T06:23:49;20.00;99.90
27540;DHT22;15906;52.046;4.724;2023-06-24T06:26:15;20.10;99.90
27540;DHT22;15906;52.046;4.724;2023-06-24T06:28:41;20.10;99.90
27540;DHT22;15906;52.046;4.724;2023-06-24T06:31:06;20.30;99.90
27540;DHT22;15906;52.046;4.724;2023-06-24T06:33:32;20.30;99.90
27540;DHT22;15906;52.046;4.724;2023-06-24T06:35:57;20.60;99.90
27540;DHT22;15906;52.046;4.724;2023-06-24T06:38:24;20.70;99.90
27540;DHT22;15906;52.046;4.724;2023-06-24T06:40:50;20.90;99.90
27540;DHT22;15906;52.046;4.724;2023-06-24T06:43:15;21.00;99.90
27540;DHT22;15906;52.046;4.724;2023-06-24T06:45:41;21.20;99.90
27540;DHT22;15906;52.046;4.724;2023-06-24T06:48:06;21.30;99.90
27540;DHT22;15906;52.046;4.724;2023-06-24T06:50:33;21.50;99.90
27540;DHT22;15906;52.046;4.724;2023-06-24T06:52:59;21.60;99.90
27540;DHT22;15906;52.046;4.724;2023-06-24T06:55:25;21.70;99.90
27540;DHT22;15906;52.046;4.724;2023-06-24T06:57:51;21.80;99.90
27540;DHT22;15906;52.046;4.724;2023-06-24T07:00:16;21.80;99.90
27540;DHT22;15906;52.046;4.724;2023-06-24T07:02:42;22.10;99.90
27540;DHT22;15906;52.046;4.724;2023-06-24T07:05:08;22.30;99.90
27540;DHT22;15906;52.046;4.724;2023-06-24T07:07:39;22.40;99.90
27540;DHT22;15906;52.046;4.724;2023-06-24T07:10:05;22.60;99.90
27540;DHT22;15906;52.046;4.724;2023-06-24T07:12:31;22.80;99.90
27540;DHT22;15906;52.046;4.724;2023-06-24T07:14:56;23.00;99.90
27540;DHT22;15906;52.046;4.724;2023-06-24T07:17:22;23.30;99.90
27540;DHT22;15906;52.046;4.724;2023-06-24T07:19:48;23.40;99.90
27540;DHT22;15906;52.046;4.724;2023-06-24T07:22:14;23.70;99.90
27540;DHT22;15906;52.046;4.724;2023-06-24T07:24:40;23.90;99.90
27540;DHT22;15906;52.046;4.724;2023-06-24T07:27:06;24.00;99.90
27540;DHT22;15906;52.046;4.724;2023-06-24T07:29:32;24.10;99.90
27540;DHT22;15906;52.046;4.724;2023-06-24T07:31:57;24.20;99.90
27540;DHT22;15906;52.046;4.724;2023-06-24T07:34:23;24.30;99.90
27540;DHT22;15906;52.046;4.724;2023-06-24T07:36:48;24.40;99.90
27540;DHT22;15906;52.046;4.724;2023-06-24T07:39:16;24.40;99.90
27540;DHT22;15906;52.046;4.724;2023-06-24T07:41:41;24.50;99.90
27540;DHT22;15906;52.046;4.724;2023-06-24T07:44:08;24.60;99.90
27540;DHT22;15906;52.046;4.724;2023-06-24T07:46:34;24.80;99.90
27540;DHT22;15906;52.046;4.724;2023-06-24T07:48:59;24.80;99.90
27540;DHT22;15906;52.046;4.724;2023-06-24T07:51:25;24.90;99.90
27540;DHT22;15906;52.046;4.724;2023-06-24T07:53:51;24.90;99.90
27540;DHT22;15906;52.046;4.724;2023-06-24T07:56:17;25.10;99.90
27540;DHT22;15906;52.046;4.724;2023-06-24T07:58:43;25.30;99.90
27540;DHT22;15906;52.046;4.724;2023-06-24T08:01:08;25.60;99.90
27540;DHT22;15906;52.046;4.724;2023-06-24T08:03:34;25.60;99.90
27540;DHT22;15906;52.046;4.724;2023-06-24T08:06:02;25.80;99.90
27540;DHT22;15906;52.046;4.724;2023-06-24T08:08:27;25.80;99.90
27540;DHT22;15906;52.046;4.724;2023-06-24T08:10:53;25.90;99.90
27540;DHT22;15906;52.046;4.724;2023-06-24T08:13:19;25.70;99.90
27540;DHT22;15906;52.046;4.724;2023-06-24T08:15:44;25.60;99.90
27540;DHT22;15906;52.046;4.724;2023-06-24T08:18:10;25.80;99.50
27540;DHT22;15906;52.046;4.724;2023-06-24T08:20:36;25.80;99.50
27540;DHT22;15906;52.046;4.724;2023-06-24T08:23:01;25.90;99.90
27540;DHT22;15906;52.046;4.724;2023-06-24T08:25:27;26.10;99.90
27540;DHT22;15906;52.046;4.724;2023-06-24T08:27:53;26.20;99.90
27540;DHT22;15906;52.046;4.724;2023-06-24T08:30:18;26.40;99.90
27540;DHT22;15906;52.046;4.724;2023-06-24T08:32:44;26.70;99.20
27540;DHT22;15906;52.046;4.724;2023-06-24T08:35:09;26.70;99.90
27540;DHT22;15906;52.046;4.724;2023-06-24T08:37:36;26.90;99.40
27540;DHT22;15906;52.046;4.724;2023-06-24T08:40:02;27.00;99.80
27540;DHT22;15906;52.046;4.724;2023-06-24T08:42:30;27.20;98.20
27540;DHT22;15906;52.046;4.724;2023-06-24T08:44:55;27.00;97.50
27540;DHT22;15906;52.046;4.724;2023-06-24T08:47:23;27.00;99.60
27540;DHT22;15906;52.046;4.724;2023-06-24T08:49:53;27.10;99.90
27540;DHT22;15906;52.046;4.724;2023-06-24T08:52:25;27.40;98.00
27540;DHT22;15906;52.046;4.724;2023-06-24T08:54:52;27.40;99.30
27540;DHT22;15906;52.046;4.724;2023-06-24T08:57:20;27.60;97.50
27540;DHT22;15906;52.046;4.724;2023-06-24T08:59:46;27.60;98.50
27540;DHT22;15906;52.046;4.724;2023-06-24T09:02:11;27.60;97.40
27540;DHT22;15906;52.046;4.724;2023-06-24T09:04:39;27.60;98.60
27540;DHT22;15906;52.046;4.724;2023-06-24T09:07:05;27.60;96.90
27540;DHT22;15906;52.046;4.724;2023-06-24T09:09:31;27.70;96.80
27540;DHT22;15906;52.046;4.724;2023-06-24T09:11:58;27.80;98.40
27540;DHT22;15906;52.046;4.724;2023-06-24T09:14:25;27.80;97.20
27540;DHT22;15906;52.046;4.724;2023-06-24T09:17:01;27.80;98.30
27540;DHT22;15906;52.046;4.724;2023-06-24T09:19:28;28.00;97.10
27540;DHT22;15906;52.046;4.724;2023-06-24T09:21:55;28.10;95.30
27540;DHT22;15906;52.046;4.724;2023-06-24T09:24:27;28.00;97.10
27540;DHT22;15906;52.046;4.724;2023-06-24T09:26:55;28.10;96.20
27540;DHT22;15906;52.046;4.724;2023-06-24T09:29:25;28.00;95.40
27540;DHT22;15906;52.046;4.724;2023-06-24T09:31:52;28.00;98.30
27540;DHT22;15906;52.046;4.724;2023-06-24T09:34:19;28.00;97.10
27540;DHT22;15906;52.046;4.724;2023-06-24T09:36:51;28.10;97.00
27540;DHT22;15906;52.046;4.724;2023-06-24T09:39:18;27.80;95.60
27540;DHT22;15906;52.046;4.724;2023-06-24T09:41:49;27.90;99.00
27540;DHT22;15906;52.046;4.724;2023-06-24T09:44:16;28.00;97.70
27540;DHT22;15906;52.046;4.724;2023-06-24T09:46:42;27.90;95.50
27540;DHT22;15906;52.046;4.724;2023-06-24T09:49:08;27.80;96.50
27540;DHT22;15906;52.046;4.724;2023-06-24T09:51:38;28.00;99.10
27540;DHT22;15906;52.046;4.724;2023-06-24T09:54:07;28.10;98.40
27540;DHT22;15906;52.046;4.724;2023-06-24T09:56:36;28.40;95.50
27540;DHT22;15906;52.046;4.724;2023-06-24T09:59:06;28.60;97.40
27540;DHT22;15906;52.046;4.724;2023-06-24T10:01:38;28.60;95.80
27540;DHT22;15906;52.046;4.724;2023-06-24T10:04:05;28.40;95.10
27540;DHT22;15906;52.046;4.724;2023-06-24T10:06:32;28.40;97.40
27540;DHT22;15906;52.046;4.724;2023-06-24T10:08:58;28.60;95.90
27540;DHT22;15906;52.046;4.724;2023-06-24T10:11:24;28.50;97.40
27540;DHT22;15906;52.046;4.724;2023-06-24T10:13:50;28.60;98.00
27540;DHT22;15906;52.046;4.724;2023-06-24T10:16:16;28.80;96.40
27540;DHT22;15906;52.046;4.724;2023-06-24T10:18:44;29.00;96.90
27540;DHT22;15906;52.046;4.724;2023-06-24T10:21:10;29.00;98.00
27540;DHT22;15906;52.046;4.724;2023-06-24T10:26:11;29.40;94.30
27540;DHT22;15906;52.046;4.724;2023-06-24T10:39:53;29.20;97.70
27540;DHT22;15906;52.046;4.724;2023-06-24T10:45:15;29.40;96.30
27540;DHT22;15906;52.046;4.724;2023-06-24T10:47:49;29.70;95.20
27540;DHT22;15906;52.046;4.724;2023-06-24T10:50:19;29.80;97.00
27540;DHT22;15906;52.046;4.724;2023-06-24T10:52:47;29.70;96.00
27540;DHT22;15906;52.046;4.724;2023-06-24T10:55:17;29.80;95.80
27540;DHT22;15906;52.046;4.724;2023-06-24T10:57:43;29.90;95.60
27540;DHT22;15906;52.046;4.724;2023-06-24T11:00:09;30.00;94.70
27540;DHT22;15906;52.046;4.724;2023-06-24T11:02:35;30.00;96.00
27540;DHT22;15906;52.046;4.724;2023-06-24T11:05:03;30.00;95.20
27540;DHT22;15906;52.046;4.724;2023-06-24T11:07:30;30.00;93.80
27540;DHT22;15906;52.046;4.724;2023-06-24T11:10:09;30.20;94.30
27540;DHT22;15906;52.046;4.724;2023-06-24T11:12:37;30.10;94.60
27540;DHT22;15906;52.046;4.724;2023-06-24T11:15:07;30.20;92.90
27540;DHT22;15906;52.046;4.724;2023-06-24T11:17:34;30.10;92.50
27540;DHT22;15906;52.046;4.724;2023-06-24T11:20:01;30.20;92.40
27540;DHT22;15906;52.046;4.724;2023-06-24T11:22:27;30.20;94.60
27540;DHT22;15906;52.046;4.724;2023-06-24T11:24:54;30.40;93.80
27540;DHT22;15906;52.046;4.724;2023-06-24T11:27:27;30.30;93.50
27540;DHT22;15906;52.046;4.724;2023-06-24T11:29:54;30.30;93.30
27540;DHT22;15906;52.046;4.724;2023-06-24T11:32:20;30.40;91.20
27540;DHT22;15906;52.046;4.724;2023-06-24T11:34:47;30.50;93.50
27540;DHT22;15906;52.046;4.724;2023-06-24T11:37:14;30.50;93.10
27540;DHT22;15906;52.046;4.724;2023-06-24T11:39:40;30.40;95.10
27540;DHT22;15906;52.046;4.724;2023-06-24T11:42:07;30.60;93.90
27540;DHT22;15906;52.046;4.724;2023-06-24T11:44:33;30.60;92.60
27540;DHT22;15906;52.046;4.724;2023-06-24T11:47:06;30.90;91.20
27540;DHT22;15906;52.046;4.724;2023-06-24T11:49:31;30.90;91.00
27540;DHT22;15906;52.046;4.724;2023-06-24T11:51:57;30.70;93.80
27540;DHT22;15906;52.046;4.724;2023-06-24T11:54:22;30.80;92.00
27540;DHT22;15906;52.046;4.724;2023-06-24T11:56:52;30.70;94.30
27540;DHT22;15906;52.046;4.724;2023-06-24T11:59:21;30.80;93.40
27540;DHT22;15906;52.046;4.724;2023-06-24T12:01:55;30.90;91.60
27540;DHT22;15906;52.046;4.724;2023-06-24T12:04:27;31.00;92.10
27540;DHT22;15906;52.046;4.724;2023-06-24T12:06:52;30.90;92.70
27540;DHT22;15906;52.046;4.724;2023-06-24T12:09:18;30.40;92.40
27540;DHT22;15906;52.046;4.724;2023-06-24T12:11:43;30.00;91.50
27540;DHT22;15906;52.046;4.724;2023-06-24T12:14:09;29.90;91.20
27540;DHT22;15906;52.046;4.724;2023-06-24T12:16:35;29.90;94.40
27540;DHT22;15906;52.046;4.724;2023-06-24T12:19:00;29.70;90.10
27540;DHT22;15906;52.046;4.724;2023-06-24T12:21:26;29.60;90.90
27540;DHT22;15906;52.046;4.724;2023-06-24T12:23:51;29.60;94.40
27540;DHT22;15906;52.046;4.724;2023-06-24T12:26:17;30.00;94.30
27540;DHT22;15906;52.046;4.724;2023-06-24T12:28:43;30.30;93.70
27540;DHT22;15906;52.046;4.724;2023-06-24T12:31:09;30.50;93.40
27540;DHT22;15906;52.046;4.724;2023-06-24T12:33:34;30.70;93.10
27540;DHT22;15906;52.046;4.724;2023-06-24T12:36:00;30.50;94.70
27540;DHT22;15906;52.046;4.724;2023-06-24T12:38:25;30.40;92.30
27540;DHT22;15906;52.046;4.724;2023-06-24T12:40:51;30.40;91.80
27540;DHT22;15906;52.046;4.724;2023-06-24T12:43:17;30.30;91.50
27540;DHT22;15906;52.046;4.724;2023-06-24T12:45:43;30.30;93.60
27540;DHT22;15906;52.046;4.724;2023-06-24T12:48:12;30.70;92.20
27540;DHT22;15906;52.046;4.724;2023-06-24T12:50:38;30.90;90.70
27540;DHT22;15906;52.046;4.724;2023-06-24T12:53:04;31.00;88.70
27540;DHT22;15906;52.046;4.724;2023-06-24T12:55:30;30.70;89.60
27540;DHT22;15906;52.046;4.724;2023-06-24T12:57:56;30.30;91.10
27540;DHT22;15906;52.046;4.724;2023-06-24T13:00:23;29.70;91.20
27540;DHT22;15906;52.046;4.724;2023-06-24T13:02:49;29.90;91.50
27540;DHT22;15906;52.046;4.724;2023-06-24T13:05:15;30.10;93.00
27540;DHT22;15906;52.046;4.724;2023-06-24T13:07:41;30.30;93.30
27540;DHT22;15906;52.046;4.724;2023-06-24T13:10:07;30.50;93.60
27540;DHT22;15906;52.046;4.724;2023-06-24T13:12:33;30.80;90.60
27540;DHT22;15906;52.046;4.724;2023-06-24T13:14:59;30.80;93.00
27540;DHT22;15906;52.046;4.724;2023-06-24T13:17:25;31.00;91.70
27540;DHT22;15906;52.046;4.724;2023-06-24T13:19:51;31.00;91.50
27540;DHT22;15906;52.046;4.724;2023-06-24T13:22:17;31.10;91.50
27540;DHT22;15906;52.046;4.724;2023-06-24T13:24:42;31.00;91.60
27540;DHT22;15906;52.046;4.724;2023-06-24T13:27:08;30.70;85.00
27540;DHT22;15906;52.046;4.724;2023-06-24T13:29:34;30.30;89.90
27540;DHT22;15906;52.046;4.724;2023-06-24T13:31:59;30.50;90.90
27540;DHT22;15906;52.046;4.724;2023-06-24T13:34:25;30.80;92.10
27540;DHT22;15906;52.046;4.724;2023-06-24T13:36:51;31.00;90.40
27540;DHT22;15906;52.046;4.724;2023-06-24T13:39:16;30.70;87.00
27540;DHT22;15906;52.046;4.724;2023-06-24T13:41:44;30.50;87.20
27540;DHT22;15906;52.046;4.724;2023-06-24T13:44:09;29.80;89.50
27540;DHT22;15906;52.046;4.724;2023-06-24T13:46:35;29.50;91.50
27540;DHT22;15906;52.046;4.724;2023-06-24T13:49:01;29.30;90.80
27540;DHT22;15906;52.046;4.724;2023-06-24T13:51:28;29.00;92.00
27540;DHT22;15906;52.046;4.724;2023-06-24T13:53:54;29.10;90.70
27540;DHT22;15906;52.046;4.724;2023-06-24T13:56:21;29.30;93.70
27540;DHT22;15906;52.046;4.724;2023-06-24T13:58:47;29.20;91.90
27540;DHT22;15906;52.046;4.724;2023-06-24T14:01:13;29.20;92.50
27540;DHT22;15906;52.046;4.724;2023-06-24T14:03:39;29.10;93.50
27540;DHT22;15906;52.046;4.724;2023-06-24T14:06:05;28.90;93.20
27540;DHT22;15906;52.046;4.724;2023-06-24T14:08:32;28.80;92.60
27540;DHT22;15906;52.046;4.724;2023-06-24T14:10:58;28.30;93.80
27540;DHT22;15906;52.046;4.724;2023-06-24T14:13:25;28.10;94.40
27540;DHT22;15906;52.046;4.724;2023-06-24T14:15:50;28.30;95.00
27540;DHT22;15906;52.046;4.724;2023-06-24T14:18:16;28.50;94.30
27540;DHT22;15906;52.046;4.724;2023-06-24T14:20:41;28.70;95.30
27540;DHT22;15906;52.046;4.724;2023-06-24T14:23:07;28.60;96.00
27540;DHT22;15906;52.046;4.724;2023-06-24T14:25:33;28.40;95.60
27540;DHT22;15906;52.046;4.724;2023-06-24T14:27:58;28.20;96.50
27540;DHT22;15906;52.046;4.724;2023-06-24T14:30:24;28.00;97.80
27540;DHT22;15906;52.046;4.724;2023-06-24T14:32:50;27.90;98.00
27540;DHT22;15906;52.046;4.724;2023-06-24T14:35:15;27.70;97.70
27540;DHT22;15906;52.046;4.724;2023-06-24T14:37:41;27.80;99.20
27540;DHT22;15906;52.046;4.724;2023-06-24T14:40:08;27.80;98.70
27540;DHT22;15906;52.046;4.724;2023-06-24T14:42:34;27.70;98.10
27540;DHT22;15906;52.046;4.724;2023-06-24T14:45:00;27.60;98.10
27540;DHT22;15906;52.046;4.724;2023-06-24T14:47:26;27.60;99.80
27540;DHT22;15906;52.046;4.724;2023-06-24T14:49:51;27.80;98.90
27540;DHT22;15906;52.046;4.724;2023-06-24T14:52:17;28.00;98.90
27540;DHT22;15906;52.046;4.724;2023-06-24T14:54:42;28.30;98.70
27540;DHT22;15906;52.046;4.724;2023-06-24T14:57:08;28.20;97.60
27540;DHT22;15906;52.046;4.724;2023-06-24T14:59:33;28.20;97.10
27540;DHT22;15906;52.046;4.724;2023-06-24T15:01:59;28.20;97.40
27540;DHT22;15906;52.046;4.724;2023-06-24T15:04:24;28.10;98.30
27540;DHT22;15906;52.046;4.724;2023-06-24T15:06:50;28.10;98.00
27540;DHT22;15906;52.046;4.724;2023-06-24T15:09:16;28.10;97.90
27540;DHT22;15906;52.046;4.724;2023-06-24T15:11:41;28.00;98.00
27540;DHT22;15906;52.046;4.724;2023-06-24T15:14:07;27.80;97.60
27540;DHT22;15906;52.046;4.724;2023-06-24T15:16:33;27.70;97.90
27540;DHT22;15906;52.046;4.724;2023-06-24T15:18:58;27.70;98.00
27540;DHT22;15906;52.046;4.724;2023-06-24T15:21:24;27.40;98.30
27540;DHT22;15906;52.046;4.724;2023-06-24T15:23:49;27.50;98.00
27540;DHT22;15906;52.046;4.724;2023-06-24T15:26:15;27.40;97.90
27540;DHT22;15906;52.046;4.724;2023-06-24T15:28:40;27.50;98.80
27540;DHT22;15906;52.046;4.724;2023-06-24T15:31:06;27.50;97.40
27540;DHT22;15906;52.046;4.724;2023-06-24T15:33:31;27.40;98.20
27540;DHT22;15906;52.046;4.724;2023-06-24T15:35:57;27.20;97.10
27540;DHT22;15906;52.046;4.724;2023-06-24T15:38:24;27.00;96.70
27540;DHT22;15906;52.046;4.724;2023-06-24T15:40:50;26.90;97.60
27540;DHT22;15906;52.046;4.724;2023-06-24T15:43:15;26.80;98.60
27540;DHT22;15906;52.046;4.724;2023-06-24T15:45:41;26.70;98.30
27540;DHT22;15906;52.046;4.724;2023-06-24T15:48:07;26.60;98.60
27540;DHT22;15906;52.046;4.724;2023-06-24T15:50:32;26.50;97.80